Terminal Aerodrome Forecast
Issued by NWS

Home | Current Version | Previous Version | Text Only | Print | Product List | Glossary On
Versions: 1 2 3 4 5 6 7 8 9 10 11 12 13 14 15 16 17 18
000
FTUS46 KMFR 181105 AAA
TAFOTH
TAF AMD
KOTH 181105Z 1811/1906 15005KT P6SM VCSH BKN030 OVC040
     FM181200 00000KT P6SM SCT010 OVC020
     FM181600 16010G18KT P6SM SCT025 BKN050
     FM182000 17015G25KT P6SM VCSH SCT035 OVC070
     FM190000 18020G30KT P6SM -RA SCT025 OVC040=

USA.gov is the U.S. government's official web portal to all federal, state and local government web resources and services.